sensor_id;sensor_type;location;lat;lon;timestamp;pressure;altitude;pressure_sealevel;temperature
23208;BMP180;11773;52.570;13.052;2022-09-16T00:01:40;100230.00;;;19.30
23208;BMP180;11773;52.570;13.052;2022-09-16T00:04:09;100226.00;;;19.30
23208;BMP180;11773;52.570;13.052;2022-09-16T00:06:39;100225.00;;;19.30
23208;BMP180;11773;52.570;13.052;2022-09-16T00:09:08;100230.00;;;19.30
23208;BMP180;11773;52.570;13.052;2022-09-16T00:11:38;100227.00;;;19.20
23208;BMP180;11773;52.570;13.052;2022-09-16T00:14:09;100223.00;;;19.20
23208;BMP180;11773;52.570;13.052;2022-09-16T00:16:39;100231.00;;;19.20
23208;BMP180;11773;52.570;13.052;2022-09-16T00:19:08;100229.00;;;19.20
23208;BMP180;11773;52.570;13.052;2022-09-16T00:21:38;100249.00;;;19.20
23208;BMP180;11773;52.570;13.052;2022-09-16T00:24:09;100232.00;;;19.20
23208;BMP180;11773;52.570;13.052;2022-09-16T00:26:41;100239.00;;;19.20
23208;BMP180;11773;52.570;13.052;2022-09-16T00:29:11;100233.00;;;19.10
23208;BMP180;11773;52.570;13.052;2022-09-16T00:31:40;100227.00;;;19.10
23208;BMP180;11773;52.570;13.052;2022-09-16T00:34:10;100233.00;;;19.10
23208;BMP180;11773;52.570;13.052;2022-09-16T00:36:39;100237.00;;;19.10
23208;BMP180;11773;52.570;13.052;2022-09-16T00:39:09;100243.00;;;19.10
23208;BMP180;11773;52.570;13.052;2022-09-16T00:41:38;100228.00;;;19.10
23208;BMP180;11773;52.570;13.052;2022-09-16T00:50:08;100233.00;;;19.00
23208;BMP180;11773;52.570;13.052;2022-09-16T00:52:40;100235.00;;;18.90
23208;BMP180;11773;52.570;13.052;2022-09-16T00:55:14;100237.00;;;18.90
23208;BMP180;11773;52.570;13.052;2022-09-16T00:57:45;100238.00;;;18.90
23208;BMP180;11773;52.570;13.052;2022-09-16T01:00:16;100238.00;;;18.90
23208;BMP180;11773;52.570;13.052;2022-09-16T01:02:46;100249.00;;;18.90
23208;BMP180;11773;52.570;13.052;2022-09-16T01:05:22;100236.00;;;18.90
23208;BMP180;11773;52.570;13.052;2022-09-16T01:07:54;100236.00;;;18.90
23208;BMP180;11773;52.570;13.052;2022-09-16T01:10:25;100231.00;;;18.90
23208;BMP180;11773;52.570;13.052;2022-09-16T01:13:02;100240.00;;;18.80
23208;BMP180;11773;52.570;13.052;2022-09-16T01:15:57;100251.00;;;18.80
23208;BMP180;11773;52.570;13.052;2022-09-16T01:21:33;100234.00;;;18.80
23208;BMP180;11773;52.570;13.052;2022-09-16T01:24:43;100241.00;;;18.70
23208;BMP180;11773;52.570;13.052;2022-09-16T01:27:43;100223.00;;;18.60
23208;BMP180;11773;52.570;13.052;2022-09-16T01:30:38;100237.00;;;18.60
23208;BMP180;11773;52.570;13.052;2022-09-16T01:33:31;100239.00;;;18.50
23208;BMP180;11773;52.570;13.052;2022-09-16T01:41:41;100246.00;;;18.40
23208;BMP180;11773;52.570;13.052;2022-09-16T01:47:19;100233.00;;;18.40
23208;BMP180;11773;52.570;13.052;2022-09-16T01:50:16;100241.00;;;18.40
23208;BMP180;11773;52.570;13.052;2022-09-16T01:53:07;100244.00;;;18.40
23208;BMP180;11773;52.570;13.052;2022-09-16T01:55:31;100246.00;;;18.40
23208;BMP180;11773;52.570;13.052;2022-09-16T01:58:30;100228.00;;;18.40
23208;BMP180;11773;52.570;13.052;2022-09-16T02:00:59;100237.00;;;18.40
23208;BMP180;11773;52.570;13.052;2022-09-16T02:03:33;100227.00;;;18.40
23208;BMP180;11773;52.570;13.052;2022-09-16T02:06:10;100229.00;;;18.40
23208;BMP180;11773;52.570;13.052;2022-09-16T02:08:53;100245.00;;;18.40
23208;BMP180;11773;52.570;13.052;2022-09-16T02:11:25;100229.00;;;18.40
23208;BMP180;11773;52.570;13.052;2022-09-16T02:14:11;100244.00;;;18.40
23208;BMP180;11773;52.570;13.052;2022-09-16T02:16:56;100240.00;;;18.40
23208;BMP180;11773;52.570;13.052;2022-09-16T02:19:45;100239.00;;;18.30
23208;BMP180;11773;52.570;13.052;2022-09-16T02:22:15;100236.00;;;18.30
23208;BMP180;11773;52.570;13.052;2022-09-16T02:24:47;100235.00;;;18.30
23208;BMP180;11773;52.570;13.052;2022-09-16T02:27:20;100246.00;;;18.30
23208;BMP180;11773;52.570;13.052;2022-09-16T02:30:00;100236.00;;;18.30
23208;BMP180;11773;52.570;13.052;2022-09-16T02:32:33;100234.00;;;18.30
23208;BMP180;11773;52.570;13.052;2022-09-16T02:35:06;100237.00;;;18.30
23208;BMP180;11773;52.570;13.052;2022-09-16T02:37:51;100220.00;;;18.30
23208;BMP180;11773;52.570;13.052;2022-09-16T02:40:34;100221.00;;;18.30
23208;BMP180;11773;52.570;13.052;2022-09-16T02:43:04;100223.00;;;18.20
23208;BMP180;11773;52.570;13.052;2022-09-16T02:46:07;100238.00;;;18.20
23208;BMP180;11773;52.570;13.052;2022-09-16T02:48:55;100246.00;;;18.20
23208;BMP180;11773;52.570;13.052;2022-09-16T02:52:04;100229.00;;;18.20
23208;BMP180;11773;52.570;13.052;2022-09-16T02:54:54;100209.00;;;18.10
23208;BMP180;11773;52.570;13.052;2022-09-16T02:57:23;100223.00;;;18.10
23208;BMP180;11773;52.570;13.052;2022-09-16T02:59:52;100221.00;;;18.10
23208;BMP180;11773;52.570;13.052;2022-09-16T03:02:22;100226.00;;;18.20
23208;BMP180;11773;52.570;13.052;2022-09-16T03:04:52;100220.00;;;18.10
23208;BMP180;11773;52.570;13.052;2022-09-16T03:07:21;100242.00;;;18.20
23208;BMP180;11773;52.570;13.052;2022-09-16T03:09:52;100230.00;;;18.20
23208;BMP180;11773;52.570;13.052;2022-09-16T03:13:10;100220.00;;;18.20
23208;BMP180;11773;52.570;13.052;2022-09-16T03:15:57;100218.00;;;18.10
23208;BMP180;11773;52.570;13.052;2022-09-16T03:18:51;100224.00;;;18.10
23208;BMP180;11773;52.570;13.052;2022-09-16T03:21:38;100221.00;;;18.00
23208;BMP180;11773;52.570;13.052;2022-09-16T03:27:17;100211.00;;;18.00
23208;BMP180;11773;52.570;13.052;2022-09-16T03:29:56;100213.00;;;18.00
23208;BMP180;11773;52.570;13.052;2022-09-16T03:32:35;100210.00;;;18.00
23208;BMP180;11773;52.570;13.052;2022-09-16T03:35:12;100208.00;;;18.00
23208;BMP180;11773;52.570;13.052;2022-09-16T03:37:43;100218.00;;;18.00
23208;BMP180;11773;52.570;13.052;2022-09-16T03:40:16;100205.00;;;18.00
23208;BMP180;11773;52.570;13.052;2022-09-16T03:42:46;100208.00;;;18.00
23208;BMP180;11773;52.570;13.052;2022-09-16T03:45:20;100216.00;;;18.00
23208;BMP180;11773;52.570;13.052;2022-09-16T03:47:51;100217.00;;;18.00
23208;BMP180;11773;52.570;13.052;2022-09-16T03:50:21;100221.00;;;18.00
23208;BMP180;11773;52.570;13.052;2022-09-16T03:52:51;100206.00;;;18.00
23208;BMP180;11773;52.570;13.052;2022-09-16T03:55:20;100205.00;;;18.00
23208;BMP180;11773;52.570;13.052;2022-09-16T03:57:52;100218.00;;;18.00
23208;BMP180;11773;52.570;13.052;2022-09-16T04:00:22;100211.00;;;18.00
23208;BMP180;11773;52.570;13.052;2022-09-16T04:02:51;100217.00;;;18.00
23208;BMP180;11773;52.570;13.052;2022-09-16T04:05:21;100220.00;;;18.00
23208;BMP180;11773;52.570;13.052;2022-09-16T04:07:50;100204.00;;;18.00
23208;BMP180;11773;52.570;13.052;2022-09-16T04:10:20;100204.00;;;17.90
23208;BMP180;11773;52.570;13.052;2022-09-16T04:12:49;100200.00;;;17.90
23208;BMP180;11773;52.570;13.052;2022-09-16T04:15:19;100200.00;;;17.90
23208;BMP180;11773;52.570;13.052;2022-09-16T04:17:48;100199.00;;;17.90
23208;BMP180;11773;52.570;13.052;2022-09-16T04:20:18;100206.00;;;17.90
23208;BMP180;11773;52.570;13.052;2022-09-16T04:22:47;100202.00;;;17.90
23208;BMP180;11773;52.570;13.052;2022-09-16T04:25:17;100210.00;;;17.90
23208;BMP180;11773;52.570;13.052;2022-09-16T04:27:46;100187.00;;;17.90
23208;BMP180;11773;52.570;13.052;2022-09-16T04:30:16;100196.00;;;17.80
23208;BMP180;11773;52.570;13.052;2022-09-16T04:32:51;100200.00;;;17.80
23208;BMP180;11773;52.570;13.052;2022-09-16T04:35:18;100197.00;;;17.80
23208;BMP180;11773;52.570;13.052;2022-09-16T04:37:48;100194.00;;;17.80
23208;BMP180;11773;52.570;13.052;2022-09-16T04:40:18;100194.00;;;17.80
23208;BMP180;11773;52.570;13.052;2022-09-16T04:42:49;100194.00;;;17.80
23208;BMP180;11773;52.570;13.052;2022-09-16T04:45:19;100197.00;;;17.80
23208;BMP180;11773;52.570;13.052;2022-09-16T04:47:54;100201.00;;;17.80
23208;BMP180;11773;52.570;13.052;2022-09-16T04:50:19;100202.00;;;17.80
23208;BMP180;11773;52.570;13.052;2022-09-16T04:52:49;100213.00;;;17.80
23208;BMP180;11773;52.570;13.052;2022-09-16T04:55:19;100198.00;;;17.80
23208;BMP180;11773;52.570;13.052;2022-09-16T04:57:50;100199.00;;;17.70
23208;BMP180;11773;52.570;13.052;2022-09-16T05:00:20;100205.00;;;17.70
23208;BMP180;11773;52.570;13.052;2022-09-16T05:02:49;100223.00;;;17.70
23208;BMP180;11773;52.570;13.052;2022-09-16T05:05:21;100204.00;;;17.70
23208;BMP180;11773;52.570;13.052;2022-09-16T05:07:51;100199.00;;;17.70
23208;BMP180;11773;52.570;13.052;2022-09-16T05:10:21;100215.00;;;17.70
23208;BMP180;11773;52.570;13.052;2022-09-16T05:12:52;100197.00;;;17.70
23208;BMP180;11773;52.570;13.052;2022-09-16T05:15:22;100205.00;;;17.70
23208;BMP180;11773;52.570;13.052;2022-09-16T05:17:51;100205.00;;;17.70
23208;BMP180;11773;52.570;13.052;2022-09-16T05:20:21;100193.00;;;17.70
23208;BMP180;11773;52.570;13.052;2022-09-16T05:22:50;100196.00;;;17.70
23208;BMP180;11773;52.570;13.052;2022-09-16T05:25:20;100186.00;;;17.70
23208;BMP180;11773;52.570;13.052;2022-09-16T05:27:49;100193.00;;;17.70
23208;BMP180;11773;52.570;13.052;2022-09-16T05:30:19;100205.00;;;17.70
23208;BMP180;11773;52.570;13.052;2022-09-16T05:32:54;100191.00;;;17.70
23208;BMP180;11773;52.570;13.052;2022-09-16T05:35:24;100183.00;;;17.70
23208;BMP180;11773;52.570;13.052;2022-09-16T05:37:53;100191.00;;;17.60
23208;BMP180;11773;52.570;13.052;2022-09-16T05:40:23;100190.00;;;17.60
23208;BMP180;11773;52.570;13.052;2022-09-16T05:42:54;100190.00;;;17.60
23208;BMP180;11773;52.570;13.052;2022-09-16T05:45:24;100190.00;;;17.60
23208;BMP180;11773;52.570;13.052;2022-09-16T05:47:55;100187.00;;;17.60
23208;BMP180;11773;52.570;13.052;2022-09-16T05:50:24;100193.00;;;17.70
23208;BMP180;11773;52.570;13.052;2022-09-16T05:52:54;100192.00;;;17.70
23208;BMP180;11773;52.570;13.052;2022-09-16T05:55:23;100195.00;;;17.70
23208;BMP180;11773;52.570;13.052;2022-09-16T05:57:54;100192.00;;;17.70
23208;BMP180;11773;52.570;13.052;2022-09-16T06:00:24;100191.00;;;17.70
23208;BMP180;11773;52.570;13.052;2022-09-16T06:02:53;100191.00;;;17.70
23208;BMP180;11773;52.570;13.052;2022-09-16T06:05:23;100183.00;;;17.80
23208;BMP180;11773;52.570;13.052;2022-09-16T06:07:55;100196.00;;;17.80
23208;BMP180;11773;52.570;13.052;2022-09-16T06:10:25;100191.00;;;17.80
23208;BMP180;11773;52.570;13.052;2022-09-16T06:12:54;100188.00;;;17.90
23208;BMP180;11773;52.570;13.052;2022-09-16T06:15:24;100186.00;;;17.90
23208;BMP180;11773;52.570;13.052;2022-09-16T06:17:54;100195.00;;;17.90
23208;BMP180;11773;52.570;13.052;2022-09-16T06:20:24;100194.00;;;18.00
23208;BMP180;11773;52.570;13.052;2022-09-16T06:22:53;100192.00;;;18.00
23208;BMP180;11773;52.570;13.052;2022-09-16T06:25:23;100203.00;;;18.10
23208;BMP180;11773;52.570;13.052;2022-09-16T06:27:52;100194.00;;;18.20
23208;BMP180;11773;52.570;13.052;2022-09-16T06:30:22;100201.00;;;18.30
23208;BMP180;11773;52.570;13.052;2022-09-16T06:32:53;100205.00;;;18.50
23208;BMP180;11773;52.570;13.052;2022-09-16T06:35:22;100206.00;;;18.60
23208;BMP180;11773;52.570;13.052;2022-09-16T06:37:53;100199.00;;;18.80
23208;BMP180;11773;52.570;13.052;2022-09-16T06:40:23;100203.00;;;18.90
23208;BMP180;11773;52.570;13.052;2022-09-16T06:42:53;100185.00;;;19.10
23208;BMP180;11773;52.570;13.052;2022-09-16T06:45:26;100194.00;;;19.20
23208;BMP180;11773;52.570;13.052;2022-09-16T06:47:58;100185.00;;;19.30
23208;BMP180;11773;52.570;13.052;2022-09-16T06:50:28;100184.00;;;19.30
23208;BMP180;11773;52.570;13.052;2022-09-16T06:52:57;100189.00;;;19.40
23208;BMP180;11773;52.570;13.052;2022-09-16T06:55:27;100190.00;;;19.50
23208;BMP180;11773;52.570;13.052;2022-09-16T06:57:57;100195.00;;;19.60
23208;BMP180;11773;52.570;13.052;2022-09-16T07:00:26;100193.00;;;19.70
23208;BMP180;11773;52.570;13.052;2022-09-16T07:02:55;100192.00;;;19.80
23208;BMP180;11773;52.570;13.052;2022-09-16T07:05:25;100196.00;;;19.90
23208;BMP180;11773;52.570;13.052;2022-09-16T07:07:54;100198.00;;;20.10
23208;BMP180;11773;52.570;13.052;2022-09-16T07:10:26;100188.00;;;20.20
23208;BMP180;11773;52.570;13.052;2022-09-16T07:12:55;100198.00;;;20.30
23208;BMP180;11773;52.570;13.052;2022-09-16T07:15:25;100205.00;;;20.50
23208;BMP180;11773;52.570;13.052;2022-09-16T07:17:55;100192.00;;;20.60
23208;BMP180;11773;52.570;13.052;2022-09-16T07:20:24;100191.00;;;20.70
23208;BMP180;11773;52.570;13.052;2022-09-16T07:22:54;100204.00;;;20.90
23208;BMP180;11773;52.570;13.052;2022-09-16T07:25:23;100192.00;;;21.00
23208;BMP180;11773;52.570;13.052;2022-09-16T07:27:53;100188.00;;;21.10
23208;BMP180;11773;52.570;13.052;2022-09-16T07:30:23;100198.00;;;21.30
23208;BMP180;11773;52.570;13.052;2022-09-16T07:32:53;100193.00;;;21.40
23208;BMP180;11773;52.570;13.052;2022-09-16T07:35:23;100211.00;;;21.50
23208;BMP180;11773;52.570;13.052;2022-09-16T07:37:52;100202.00;;;21.60
23208;BMP180;11773;52.570;13.052;2022-09-16T07:40:22;100199.00;;;21.70
23208;BMP180;11773;52.570;13.052;2022-09-16T07:42:53;100204.00;;;21.80
23208;BMP180;11773;52.570;13.052;2022-09-16T07:45:22;100211.00;;;21.90
23208;BMP180;11773;52.570;13.052;2022-09-16T07:47:52;100221.00;;;22.00
23208;BMP180;11773;52.570;13.052;2022-09-16T07:50:21;100210.00;;;22.00
23208;BMP180;11773;52.570;13.052;2022-09-16T07:52:55;100212.00;;;22.10
23208;BMP180;11773;52.570;13.052;2022-09-16T07:55:24;100220.00;;;22.10
23208;BMP180;11773;52.570;13.052;2022-09-16T07:57:54;100210.00;;;22.10
23208;BMP180;11773;52.570;13.052;2022-09-16T08:00:24;100211.00;;;22.10
23208;BMP180;11773;52.570;13.052;2022-09-16T08:02:56;100220.00;;;22.10
23208;BMP180;11773;52.570;13.052;2022-09-16T08:05:26;100230.00;;;22.00
23208;BMP180;11773;52.570;13.052;2022-09-16T08:07:55;100232.00;;;22.00
23208;BMP180;11773;52.570;13.052;2022-09-16T08:10:25;100216.00;;;21.90
23208;BMP180;11773;52.570;13.052;2022-09-16T08:12:56;100224.00;;;21.90
23208;BMP180;11773;52.570;13.052;2022-09-16T08:15:26;100222.00;;;21.90
23208;BMP180;11773;52.570;13.052;2022-09-16T08:17:55;100232.00;;;21.80
23208;BMP180;11773;52.570;13.052;2022-09-16T08:20:25;100214.00;;;21.80
23208;BMP180;11773;52.570;13.052;2022-09-16T08:22:55;100217.00;;;21.80
23208;BMP180;11773;52.570;13.052;2022-09-16T08:25:25;100214.00;;;21.70
23208;BMP180;11773;52.570;13.052;2022-09-16T08:27:55;100219.00;;;21.70
23208;BMP180;11773;52.570;13.052;2022-09-16T08:30:24;100227.00;;;21.70
23208;BMP180;11773;52.570;13.052;2022-09-16T08:32:58;100227.00;;;21.70
23208;BMP180;11773;52.570;13.052;2022-09-16T08:35:28;100222.00;;;21.60
23208;BMP180;11773;52.570;13.052;2022-09-16T08:37:58;100212.00;;;21.60
23208;BMP180;11773;52.570;13.052;2022-09-16T08:40:34;100228.00;;;21.60
23208;BMP180;11773;52.570;13.052;2022-09-16T08:43:19;100214.00;;;21.60
23208;BMP180;11773;52.570;13.052;2022-09-16T08:45:54;100219.00;;;21.50
23208;BMP180;11773;52.570;13.052;2022-09-16T08:48:35;100210.00;;;21.50
23208;BMP180;11773;52.570;13.052;2022-09-16T08:51:04;100215.00;;;21.50
23208;BMP180;11773;52.570;13.052;2022-09-16T08:54:24;100214.00;;;21.50
23208;BMP180;11773;52.570;13.052;2022-09-16T08:56:16;100226.00;;;21.50
23208;BMP180;11773;52.570;13.052;2022-09-16T08:58:50;100213.00;;;21.50
23208;BMP180;11773;52.570;13.052;2022-09-16T09:04:23;100225.00;;;21.50
23208;BMP180;11773;52.570;13.052;2022-09-16T09:07:30;100230.00;;;21.50
23208;BMP180;11773;52.570;13.052;2022-09-16T09:10:21;100219.00;;;21.50
23208;BMP180;11773;52.570;13.052;2022-09-16T09:12:53;100217.00;;;21.50
23208;BMP180;11773;52.570;13.052;2022-09-16T09:15:41;100224.00;;;21.50
23208;BMP180;11773;52.570;13.052;2022-09-16T09:22:02;100203.00;;;21.50
23208;BMP180;11773;52.570;13.052;2022-09-16T09:26:50;100210.00;;;21.50
23208;BMP180;11773;52.570;13.052;2022-09-16T09:29:36;100200.00;;;21.60
23208;BMP180;11773;52.570;13.052;2022-09-16T09:32:46;100195.00;;;21.70
23208;BMP180;11773;52.570;13.052;2022-09-16T09:35:26;100203.00;;;21.80
23208;BMP180;11773;52.570;13.052;2022-09-16T09:38:41;100184.00;;;21.80
23208;BMP180;11773;52.570;13.052;2022-09-16T09:41:48;100205.00;;;21.90
23208;BMP180;11773;52.570;13.052;2022-09-16T09:44:55;100211.00;;;21.90
23208;BMP180;11773;52.570;13.052;2022-09-16T09:47:32;100210.00;;;21.90
23208;BMP180;11773;52.570;13.052;2022-09-16T09:50:27;100194.00;;;22.00
23208;BMP180;11773;52.570;13.052;2022-09-16T09:53:27;100191.00;;;22.00
23208;BMP180;11773;52.570;13.052;2022-09-16T09:56:07;100198.00;;;22.00
23208;BMP180;11773;52.570;13.052;2022-09-16T10:01:24;100182.00;;;22.10
23208;BMP180;11773;52.570;13.052;2022-09-16T10:03:54;100187.00;;;22.20
23208;BMP180;11773;52.570;13.052;2022-09-16T10:06:29;100177.00;;;22.20
23208;BMP180;11773;52.570;13.052;2022-09-16T10:09:00;100178.00;;;22.20
23208;BMP180;11773;52.570;13.052;2022-09-16T10:11:31;100192.00;;;22.20
23208;BMP180;11773;52.570;13.052;2022-09-16T10:14:02;100181.00;;;22.20
23208;BMP180;11773;52.570;13.052;2022-09-16T10:16:36;100181.00;;;22.30
23208;BMP180;11773;52.570;13.052;2022-09-16T10:19:18;100174.00;;;22.30
23208;BMP180;11773;52.570;13.052;2022-09-16T10:21:52;100169.00;;;22.30
23208;BMP180;11773;52.570;13.052;2022-09-16T10:24:38;100172.00;;;22.30
23208;BMP180;11773;52.570;13.052;2022-09-16T10:27:30;100182.00;;;22.20
23208;BMP180;11773;52.570;13.052;2022-09-16T10:30:17;100175.00;;;22.20
23208;BMP180;11773;52.570;13.052;2022-09-16T10:33:04;100181.00;;;22.20
23208;BMP180;11773;52.570;13.052;2022-09-16T10:35:37;100178.00;;;22.20
23208;BMP180;11773;52.570;13.052;2022-09-16T10:38:21;100180.00;;;22.30
23208;BMP180;11773;52.570;13.052;2022-09-16T10:40:59;100167.00;;;22.30
23208;BMP180;11773;52.570;13.052;2022-09-16T10:43:30;100171.00;;;22.40
23208;BMP180;11773;52.570;13.052;2022-09-16T10:46:00;100173.00;;;22.40
23208;BMP180;11773;52.570;13.052;2022-09-16T10:48:30;100176.00;;;22.50
23208;BMP180;11773;52.570;13.052;2022-09-16T10:51:05;100176.00;;;22.50
23208;BMP180;11773;52.570;13.052;2022-09-16T10:53:39;100180.00;;;22.50
23208;BMP180;11773;52.570;13.052;2022-09-16T10:56:25;100187.00;;;22.50
23208;BMP180;11773;52.570;13.052;2022-09-16T10:59:13;100188.00;;;22.50
23208;BMP180;11773;52.570;13.052;2022-09-16T11:02:12;100168.00;;;22.50
23208;BMP180;11773;52.570;13.052;2022-09-16T11:13:27;100173.00;;;22.40
23208;BMP180;11773;52.570;13.052;2022-09-16T11:16:02;100162.00;;;22.40
23208;BMP180;11773;52.570;13.052;2022-09-16T11:18:59;100168.00;;;22.40
23208;BMP180;11773;52.570;13.052;2022-09-16T11:21:51;100156.00;;;22.40
23208;BMP180;11773;52.570;13.052;2022-09-16T11:24:42;100166.00;;;22.40
23208;BMP180;11773;52.570;13.052;2022-09-16T11:27:44;100163.00;;;22.50
23208;BMP180;11773;52.570;13.052;2022-09-16T11:30:20;100149.00;;;22.50
23208;BMP180;11773;52.570;13.052;2022-09-16T11:33:16;100154.00;;;22.60
23208;BMP180;11773;52.570;13.052;2022-09-16T11:36:13;100146.00;;;22.60
23208;BMP180;11773;52.570;13.052;2022-09-16T11:41:56;100141.00;;;22.70
23208;BMP180;11773;52.570;13.052;2022-09-16T11:51:18;100139.00;;;22.80
23208;BMP180;11773;52.570;13.052;2022-09-16T11:54:04;100131.00;;;22.80
23208;BMP180;11773;52.570;13.052;2022-09-16T11:56:48;100138.00;;;22.80
23208;BMP180;11773;52.570;13.052;2022-09-16T11:59:40;100140.00;;;22.80
23208;BMP180;11773;52.570;13.052;2022-09-16T12:05:16;100146.00;;;22.90
23208;BMP180;11773;52.570;13.052;2022-09-16T12:10:52;100118.00;;;22.90
23208;BMP180;11773;52.570;13.052;2022-09-16T12:16:12;100108.00;;;22.90
23208;BMP180;11773;52.570;13.052;2022-09-16T12:18:48;100129.00;;;23.00
23208;BMP180;11773;52.570;13.052;2022-09-16T12:21:39;100110.00;;;23.00
23208;BMP180;11773;52.570;13.052;2022-09-16T12:24:41;100108.00;;;23.00
23208;BMP180;11773;52.570;13.052;2022-09-16T12:30:19;100121.00;;;23.00
23208;BMP180;11773;52.570;13.052;2022-09-16T12:33:17;100121.00;;;23.00
23208;BMP180;11773;52.570;13.052;2022-09-16T12:36:10;100110.00;;;23.00
23208;BMP180;11773;52.570;13.052;2022-09-16T12:38:41;100098.00;;;23.00
23208;BMP180;11773;52.570;13.052;2022-09-16T12:44:41;100087.00;;;23.10
23208;BMP180;11773;52.570;13.052;2022-09-16T12:47:44;100104.00;;;23.10
23208;BMP180;11773;52.570;13.052;2022-09-16T12:50:27;100088.00;;;23.10
23208;BMP180;11773;52.570;13.052;2022-09-16T12:53:42;100082.00;;;23.10
23208;BMP180;11773;52.570;13.052;2022-09-16T12:57:04;100073.00;;;23.10
23208;BMP180;11773;52.570;13.052;2022-09-16T12:59:55;100069.00;;;23.10
23208;BMP180;11773;52.570;13.052;2022-09-16T13:02:28;100059.00;;;23.10
23208;BMP180;11773;52.570;13.052;2022-09-16T13:05:09;100065.00;;;23.20
23208;BMP180;11773;52.570;13.052;2022-09-16T13:07:35;100056.00;;;23.20
23208;BMP180;11773;52.570;13.052;2022-09-16T13:10:19;100056.00;;;23.20
23208;BMP180;11773;52.570;13.052;2022-09-16T13:12:54;100066.00;;;23.20
23208;BMP180;11773;52.570;13.052;2022-09-16T13:15:34;100075.00;;;23.30
23208;BMP180;11773;52.570;13.052;2022-09-16T13:21:00;100057.00;;;23.30
23208;BMP180;11773;52.570;13.052;2022-09-16T13:23:33;100070.00;;;23.30
23208;BMP180;11773;52.570;13.052;2022-09-16T13:26:07;100061.00;;;23.30
23208;BMP180;11773;52.570;13.052;2022-09-16T13:28:44;100065.00;;;23.30
23208;BMP180;11773;52.570;13.052;2022-09-16T13:31:18;100049.00;;;23.30
23208;BMP180;11773;52.570;13.052;2022-09-16T13:36:33;100065.00;;;23.30
23208;BMP180;11773;52.570;13.052;2022-09-16T13:39:09;100070.00;;;23.30
23208;BMP180;11773;52.570;13.052;2022-09-16T13:41:39;100070.00;;;23.30
23208;BMP180;11773;52.570;13.052;2022-09-16T13:44:38;100058.00;;;23.40
23208;BMP180;11773;52.570;13.052;2022-09-16T13:47:13;100059.00;;;23.30
23208;BMP180;11773;52.570;13.052;2022-09-16T13:49:50;100047.00;;;23.30
23208;BMP180;11773;52.570;13.052;2022-09-16T13:52:26;100045.00;;;23.30
23208;BMP180;11773;52.570;13.052;2022-09-16T13:55:01;100050.00;;;23.30
23208;BMP180;11773;52.570;13.052;2022-09-16T14:00:34;100044.00;;;23.30
23208;BMP180;11773;52.570;13.052;2022-09-16T14:09:07;100048.00;;;23.20
23208;BMP180;11773;52.570;13.052;2022-09-16T14:12:08;100052.00;;;23.30
23208;BMP180;11773;52.570;13.052;2022-09-16T14:14:36;100044.00;;;23.20
23208;BMP180;11773;52.570;13.052;2022-09-16T14:17:26;100046.00;;;23.20
23208;BMP180;11773;52.570;13.052;2022-09-16T14:19:59;100046.00;;;23.20
23208;BMP180;11773;52.570;13.052;2022-09-16T14:22:29;100033.00;;;23.20
23208;BMP180;11773;52.570;13.052;2022-09-16T14:24:59;100024.00;;;23.30
23208;BMP180;11773;52.570;13.052;2022-09-16T14:27:33;100034.00;;;23.30
23208;BMP180;11773;52.570;13.052;2022-09-16T14:30:14;100031.00;;;23.30
23208;BMP180;11773;52.570;13.052;2022-09-16T14:32:48;100038.00;;;23.30
23208;BMP180;11773;52.570;13.052;2022-09-16T14:35:24;100031.00;;;23.40
23208;BMP180;11773;52.570;13.052;2022-09-16T14:38:01;100028.00;;;23.30
23208;BMP180;11773;52.570;13.052;2022-09-16T14:40:31;100024.00;;;23.30
23208;BMP180;11773;52.570;13.052;2022-09-16T14:43:04;100022.00;;;23.30
23208;BMP180;11773;52.570;13.052;2022-09-16T14:45:36;100011.00;;;23.30
23208;BMP180;11773;52.570;13.052;2022-09-16T14:48:09;100016.00;;;23.30
23208;BMP180;11773;52.570;13.052;2022-09-16T14:50:45;100031.00;;;23.30
23208;BMP180;11773;52.570;13.052;2022-09-16T14:53:33;100011.00;;;23.30
23208;BMP180;11773;52.570;13.052;2022-09-16T14:56:17;100025.00;;;23.30
23208;BMP180;11773;52.570;13.052;2022-09-16T14:58:38;100033.00;;;23.30
23208;BMP180;11773;52.570;13.052;2022-09-16T15:01:13;100016.00;;;23.30
23208;BMP180;11773;52.570;13.052;2022-09-16T15:04:01;100025.00;;;23.30
23208;BMP180;11773;52.570;13.052;2022-09-16T15:06:35;100019.00;;;23.20
23208;BMP180;11773;52.570;13.052;2022-09-16T15:11:57;100020.00;;;23.20
23208;BMP180;11773;52.570;13.052;2022-09-16T15:14:28;100021.00;;;23.20
23208;BMP180;11773;52.570;13.052;2022-09-16T15:17:00;100014.00;;;23.10
23208;BMP180;11773;52.570;13.052;2022-09-16T15:19:39;100016.00;;;23.10
23208;BMP180;11773;52.570;13.052;2022-09-16T15:22:07;100032.00;;;23.10
23208;BMP180;11773;52.570;13.052;2022-09-16T15:24:40;100025.00;;;23.10
23208;BMP180;11773;52.570;13.052;2022-09-16T15:27:10;100028.00;;;23.10
23208;BMP180;11773;52.570;13.052;2022-09-16T15:29:52;100022.00;;;23.10
23208;BMP180;11773;52.570;13.052;2022-09-16T15:32:21;100023.00;;;23.10
23208;BMP180;11773;52.570;13.052;2022-09-16T15:35:21;100016.00;;;23.10
23208;BMP180;11773;52.570;13.052;2022-09-16T15:37:53;100008.00;;;23.10
23208;BMP180;11773;52.570;13.052;2022-09-16T15:45:56;100013.00;;;23.10
23208;BMP180;11773;52.570;13.052;2022-09-16T15:48:36;99994.00;;;23.10
23208;BMP180;11773;52.570;13.052;2022-09-16T15:51:18;99994.00;;;23.10
23208;BMP180;11773;52.570;13.052;2022-09-16T15:53:43;99997.00;;;23.10
23208;BMP180;11773;52.570;13.052;2022-09-16T15:56:25;99990.00;;;23.10
23208;BMP180;11773;52.570;13.052;2022-09-16T15:59:01;100007.00;;;23.10
23208;BMP180;11773;52.570;13.052;2022-09-16T16:01:41;99994.00;;;23.10
23208;BMP180;11773;52.570;13.052;2022-09-16T16:04:12;100000.00;;;23.10